createdAt,value
2022-08-11T00:01:19.468Z,9.60
2022-08-11T00:03:50.249Z,8.68
2022-08-11T00:08:51.861Z,9.05
2022-08-11T00:11:21.348Z,8.95
2022-08-11T00:13:50.520Z,8.75
2022-08-11T00:16:25.306Z,9.00
2022-08-11T00:18:54.363Z,8.65
2022-08-11T00:22:01.981Z,8.75
2022-08-11T00:24:10.843Z,8.80
2022-08-11T00:26:37.663Z,8.70
2022-08-11T00:29:10.004Z,8.82
2022-08-11T00:31:37.778Z,8.73
2022-08-11T00:34:11.995Z,9.02
2022-08-11T00:36:51.412Z,9.00
2022-08-11T00:39:21.527Z,8.93
2022-08-11T00:42:09.973Z,8.98
2022-08-11T00:47:18.601Z,9.27
2022-08-11T00:50:22.545Z,8.80
2022-08-11T00:53:16.517Z,8.95
2022-08-11T00:56:10.363Z,8.73
2022-08-11T00:59:01.892Z,9.07
2022-08-11T01:02:07.936Z,9.23
2022-08-11T01:04:58.630Z,9.18
2022-08-11T01:08:01.609Z,9.13
2022-08-11T01:10:34.490Z,8.88
2022-08-11T01:13:08.450Z,8.70
2022-08-11T01:16:09.695Z,8.90
2022-08-11T01:21:33.997Z,9.60
2022-08-11T01:24:25.334Z,9.15
2022-08-11T01:27:01.249Z,8.98
2022-08-11T01:29:49.763Z,8.50
2022-08-11T01:32:38.342Z,8.70
2022-08-11T01:35:30.399Z,8.30
2022-08-11T01:38:29.497Z,8.60
2022-08-11T01:41:12.236Z,9.00
2022-08-11T01:44:35.881Z,8.63
2022-08-11T01:47:52.382Z,9.00
2022-08-11T01:51:03.521Z,9.20
2022-08-11T01:53:33.165Z,9.70
2022-08-11T01:56:27.263Z,9.20
2022-08-11T01:59:12.036Z,8.65
2022-08-11T02:02:06.918Z,8.82
2022-08-11T02:04:58.596Z,9.10
2022-08-11T02:08:18.940Z,9.50
2022-08-11T02:11:13.975Z,9.13
2022-08-11T02:13:50.714Z,8.98
2022-08-11T02:16:45.459Z,9.23
2022-08-11T02:19:36.989Z,9.40
2022-08-11T02:22:35.341Z,9.07
2022-08-11T02:25:11.324Z,9.00
2022-08-11T02:27:41.284Z,9.30
2022-08-11T02:30:16.499Z,8.70
2022-08-11T02:33:23.725Z,8.68
2022-08-11T02:36:23.061Z,8.90
2022-08-11T02:39:00.933Z,9.05
2022-08-11T02:42:07.466Z,8.80
2022-08-11T02:44:56.777Z,8.57
2022-08-11T02:48:10.373Z,9.02
2022-08-11T02:50:53.099Z,8.93
2022-08-11T02:53:37.680Z,9.18
2022-08-11T02:56:37.666Z,9.23
2022-08-11T02:59:44.255Z,9.48
2022-08-11T03:02:27.997Z,7.40
2022-08-11T03:05:17.727Z,9.15
2022-08-11T03:08:03.044Z,10.25
2022-08-11T03:10:42.782Z,10.40
2022-08-11T03:13:38.005Z,10.05
2022-08-11T03:16:37.545Z,9.70
2022-08-11T03:19:27.056Z,10.52
2022-08-11T03:22:25.143Z,10.27
2022-08-11T03:25:18.263Z,9.65
2022-08-11T03:28:02.575Z,9.85
2022-08-11T03:30:40.024Z,9.43
2022-08-11T03:34:06.641Z,9.43
2022-08-11T03:37:16.004Z,8.60
2022-08-11T03:39:57.868Z,6.82
2022-08-11T03:42:41.496Z,8.15
2022-08-11T03:45:41.196Z,9.80
2022-08-11T03:48:20.027Z,9.20
2022-08-11T03:51:14.373Z,7.35
2022-08-11T03:54:03.003Z,9.90
2022-08-11T03:57:03.327Z,9.95
2022-08-11T04:00:11.434Z,8.48
2022-08-11T04:05:39.799Z,10.20
2022-08-11T04:08:55.190Z,10.00
2022-08-11T04:11:52.831Z,10.85
2022-08-11T04:14:44.259Z,10.38
2022-08-11T04:17:48.337Z,11.20
2022-08-11T04:21:03.231Z,10.80
2022-08-11T04:24:35.483Z,11.40
2022-08-11T04:27:10.737Z,10.45
2022-08-11T04:30:02.043Z,11.07
2022-08-11T04:32:47.223Z,11.10
2022-08-11T04:36:01.052Z,10.95
2022-08-11T04:39:08.996Z,11.13
2022-08-11T04:42:58.666Z,10.60
2022-08-11T04:45:44.155Z,9.70
2022-08-11T04:48:35.665Z,8.90
2022-08-11T04:51:58.674Z,9.85
2022-08-11T04:59:31.295Z,9.45
2022-08-11T05:02:47.511Z,10.48
2022-08-11T05:10:43.180Z,10.27
2022-08-11T05:14:05.387Z,9.98
2022-08-11T05:17:13.389Z,9.60
2022-08-11T05:20:22.128Z,9.57
2022-08-11T05:27:56.319Z,9.20
2022-08-11T05:30:51.078Z,9.18
2022-08-11T05:33:51.182Z,10.23
2022-08-11T05:36:24.984Z,9.20
2022-08-11T05:39:36.250Z,9.13
2022-08-11T05:42:30.397Z,10.27
2022-08-11T05:46:03.977Z,10.23
2022-08-11T05:48:41.791Z,11.00
2022-08-11T05:51:30.499Z,10.23
2022-08-11T05:54:29.289Z,10.82
2022-08-11T05:57:00.366Z,10.15
2022-08-11T05:59:28.840Z,11.18
2022-08-11T06:02:08.618Z,11.35
2022-08-11T06:04:36.048Z,9.70
2022-08-11T06:07:08.884Z,9.75
2022-08-11T06:09:44.760Z,9.68
2022-08-11T06:12:21.833Z,9.93
2022-08-11T06:14:55.263Z,9.98
2022-08-11T06:17:26.763Z,10.10
2022-08-11T06:20:12.453Z,10.00
2022-08-11T06:22:41.994Z,11.00
2022-08-11T06:25:12.424Z,9.95
2022-08-11T06:27:41.938Z,9.48
2022-08-11T06:30:19.510Z,9.43
2022-08-11T06:32:55.990Z,10.40
2022-08-11T06:35:37.967Z,9.70
2022-08-11T06:38:16.434Z,10.30
2022-08-11T06:41:38.204Z,11.05
2022-08-11T06:44:18.953Z,10.68
2022-08-11T06:46:51.138Z,11.32
2022-08-11T06:49:50.912Z,11.25
2022-08-11T06:52:35.154Z,11.00
2022-08-11T06:55:57.785Z,10.55
2022-08-11T06:58:17.040Z,10.57
2022-08-11T07:00:48.113Z,11.10
2022-08-11T07:03:20.488Z,10.70
2022-08-11T07:06:08.038Z,10.90
2022-08-11T07:09:15.104Z,10.82
2022-08-11T07:12:09.610Z,12.35
2022-08-11T07:15:00.458Z,10.98
2022-08-11T07:17:28.708Z,10.70
2022-08-11T07:20:17.674Z,10.00
2022-08-11T07:23:15.015Z,10.20
2022-08-11T07:26:02.692Z,11.20
2022-08-11T07:28:50.043Z,10.45
2022-08-11T07:31:31.576Z,11.60
2022-08-11T07:34:18.814Z,11.35
2022-08-11T07:36:56.748Z,11.13
2022-08-11T07:39:26.995Z,10.80
2022-08-11T07:41:57.678Z,10.68
2022-08-11T07:44:35.013Z,11.45
2022-08-11T07:47:21.405Z,10.27
2022-08-11T07:50:09.220Z,11.30
2022-08-11T07:52:38.368Z,10.82
2022-08-11T07:55:10.338Z,10.70
2022-08-11T07:58:13.873Z,11.30
2022-08-11T08:01:10.171Z,11.50
2022-08-11T08:03:58.014Z,10.20
2022-08-11T08:06:44.749Z,11.23
2022-08-11T08:09:31.292Z,11.20
2022-08-11T08:12:19.575Z,11.48
2022-08-11T08:15:04.911Z,10.15
2022-08-11T08:18:09.720Z,9.85
2022-08-11T08:20:45.635Z,10.10
2022-08-11T08:23:13.234Z,9.57
2022-08-11T08:25:42.347Z,10.05
2022-08-11T08:28:20.701Z,10.30
2022-08-11T08:30:51.266Z,9.07
2022-08-11T08:33:23.448Z,9.55
2022-08-11T08:36:11.963Z,9.50
2022-08-11T08:38:47.098Z,9.60
2022-08-11T08:41:19.603Z,9.80
2022-08-11T08:43:50.930Z,10.43
2022-08-11T08:46:22.195Z,10.63
2022-08-11T08:48:53.321Z,9.98
2022-08-11T08:52:01.196Z,10.35
2022-08-11T08:54:28.672Z,9.60
2022-08-11T08:56:56.697Z,8.73
2022-08-11T08:59:27.101Z,8.80
2022-08-11T09:04:45.846Z,5.65
2022-08-11T09:07:17.243Z,5.35
2022-08-11T09:09:52.372Z,5.13
2022-08-11T09:12:36.033Z,4.72
2022-08-11T09:15:11.935Z,4.43
2022-08-11T09:17:41.969Z,3.60
2022-08-11T09:20:12.462Z,3.60
2022-08-11T09:26:09.805Z,7.03
2022-08-11T09:28:37.380Z,2.80
2022-08-11T09:31:06.705Z,3.10
2022-08-11T09:33:34.354Z,3.00
2022-08-11T09:36:24.114Z,3.45
2022-08-11T09:39:11.982Z,3.50
2022-08-11T09:42:00.687Z,3.15
2022-08-11T09:44:50.120Z,3.25
2022-08-11T09:47:26.327Z,3.03
2022-08-11T09:50:00.156Z,3.60
2022-08-11T09:52:30.921Z,3.35
2022-08-11T09:54:58.701Z,2.75
2022-08-11T09:57:44.685Z,3.10
2022-08-11T10:00:14.119Z,4.43
2022-08-11T10:02:45.325Z,5.18
2022-08-11T10:05:36.149Z,5.10
2022-08-11T10:08:04.943Z,4.78
2022-08-11T10:13:05.418Z,3.72
2022-08-11T10:16:00.016Z,4.40
2022-08-11T10:18:49.347Z,3.60
2022-08-11T10:21:36.397Z,4.00
2022-08-11T10:24:23.988Z,3.70
2022-08-11T10:26:55.549Z,3.70
2022-08-11T10:29:44.576Z,3.70
2022-08-11T10:32:57.866Z,2.90
2022-08-11T10:35:28.181Z,2.80
2022-08-11T10:38:07.889Z,2.70
2022-08-11T10:40:40.496Z,2.50
2022-08-11T10:43:13.768Z,2.20
2022-08-11T10:46:05.112Z,2.55
2022-08-11T10:48:39.071Z,2.40
2022-08-11T10:51:13.557Z,2.17
2022-08-11T10:54:04.455Z,3.33
2022-08-11T10:56:54.545Z,2.33
2022-08-11T10:59:23.847Z,2.67
2022-08-11T11:01:53.531Z,2.40
2022-08-11T11:04:39.766Z,2.60
2022-08-11T11:07:17.497Z,3.00
2022-08-11T11:09:50.576Z,2.97
2022-08-11T11:12:35.734Z,3.40
2022-08-11T11:15:22.562Z,3.65
2022-08-11T11:17:56.441Z,3.80
2022-08-11T11:20:36.976Z,3.53
2022-08-11T11:23:23.747Z,3.40
2022-08-11T11:26:06.777Z,4.22
2022-08-11T11:28:54.684Z,3.72
2022-08-11T11:31:24.476Z,3.72
2022-08-11T11:34:15.774Z,3.50
2022-08-11T11:36:48.835Z,3.90
2022-08-11T11:39:21.832Z,4.20
2022-08-11T11:41:51.918Z,3.72
2022-08-11T11:44:21.282Z,3.30
2022-08-11T11:46:48.580Z,3.60
2022-08-11T11:49:18.629Z,3.90
2022-08-11T11:51:50.023Z,3.80
2022-08-11T11:54:19.740Z,4.07
2022-08-11T11:56:46.560Z,3.90
2022-08-11T11:59:33.369Z,3.42
2022-08-11T12:02:01.224Z,3.33
2022-08-11T12:04:43.051Z,4.15
2022-08-11T12:07:30.118Z,4.47
2022-08-11T12:09:58.526Z,4.60
2022-08-11T12:12:44.462Z,5.20
2022-08-11T12:15:12.122Z,5.45
2022-08-11T12:17:39.777Z,5.90
2022-08-11T12:20:31.592Z,6.40
2022-08-11T12:23:15.385Z,6.05
2022-08-11T12:26:25.298Z,5.75
2022-08-11T12:28:50.553Z,5.97
2022-08-11T12:31:17.871Z,5.57
2022-08-11T12:33:44.647Z,5.30
2022-08-11T12:36:16.005Z,5.50
2022-08-11T12:38:46.010Z,5.25
2022-08-11T12:41:39.783Z,5.45
2022-08-11T12:44:29.714Z,5.40
2022-08-11T12:47:01.985Z,5.20
2022-08-11T12:49:51.433Z,5.70
2022-08-11T12:52:25.510Z,5.80
2022-08-11T12:55:00.885Z,6.18
2022-08-11T12:58:05.799Z,6.80
2022-08-11T13:00:52.195Z,6.93
2022-08-11T13:03:39.306Z,8.38
2022-08-11T13:06:07.501Z,7.30
2022-08-11T13:08:37.785Z,8.32
2022-08-11T13:11:23.646Z,9.07
2022-08-11T13:13:57.078Z,8.88
2022-08-11T13:16:29.199Z,8.40
2022-08-11T13:18:58.885Z,8.13
2022-08-11T13:21:27.465Z,8.40
2022-08-11T13:24:01.784Z,8.30
2022-08-11T13:26:48.111Z,8.50
2022-08-11T13:29:24.635Z,8.82
2022-08-11T13:31:56.462Z,13.07
2022-08-11T13:34:25.260Z,9.35
2022-08-11T13:36:55.353Z,9.02
2022-08-11T13:41:55.258Z,7.90
2022-08-11T13:44:25.835Z,8.45
2022-08-11T13:47:04.818Z,7.60
2022-08-11T13:49:40.302Z,8.10
2022-08-11T13:52:14.675Z,7.85
2022-08-11T13:54:42.819Z,8.23
2022-08-11T13:57:13.926Z,8.40
2022-08-11T14:00:13.411Z,8.68
2022-08-11T14:02:52.687Z,9.15
2022-08-11T14:05:27.183Z,9.68
2022-08-11T14:08:01.896Z,10.18
2022-08-11T14:10:31.218Z,9.25
2022-08-11T14:13:25.178Z,9.40
2022-08-11T14:15:52.951Z,9.00
2022-08-11T14:18:29.331Z,9.52
2022-08-11T14:21:17.512Z,9.35
2022-08-11T14:23:55.657Z,10.27
2022-08-11T14:26:23.593Z,9.38
2022-08-11T14:28:55.415Z,7.82
2022-08-11T14:31:26.912Z,7.93
2022-08-11T14:34:02.464Z,8.15
2022-08-11T14:36:34.063Z,8.15
2022-08-11T14:39:03.406Z,7.50
2022-08-11T14:42:11.593Z,7.78
2022-08-11T14:44:56.763Z,7.82
2022-08-11T14:47:25.567Z,7.80
2022-08-11T14:50:09.886Z,7.80
2022-08-11T14:52:55.142Z,8.02
2022-08-11T14:55:43.402Z,8.80
2022-08-11T14:58:13.722Z,8.52
2022-08-11T15:00:43.191Z,8.18
2022-08-11T15:03:15.379Z,8.40
2022-08-11T15:05:55.996Z,8.05
2022-08-11T15:08:52.879Z,8.95
2022-08-11T15:11:41.444Z,8.70
2022-08-11T15:14:10.546Z,8.25
2022-08-11T15:16:59.845Z,8.23
2022-08-11T15:19:29.059Z,8.63
2022-08-11T15:22:27.435Z,9.30
2022-08-11T15:25:06.160Z,8.30
2022-08-11T15:27:52.933Z,8.90
2022-08-11T15:30:38.402Z,9.80
2022-08-11T15:33:26.898Z,8.20
2022-08-11T15:36:14.844Z,8.15
2022-08-11T15:38:58.498Z,8.65
2022-08-11T15:42:02.583Z,8.32
2022-08-11T15:45:08.594Z,8.48
2022-08-11T15:47:41.667Z,8.32
2022-08-11T15:50:14.185Z,8.27
2022-08-11T15:53:08.292Z,8.30
2022-08-11T15:55:37.630Z,8.00
2022-08-11T15:58:27.447Z,9.25
2022-08-11T16:01:14.565Z,8.07
2022-08-11T16:04:15.405Z,8.15
2022-08-11T16:06:49.553Z,8.00
2022-08-11T16:10:09.385Z,8.35
2022-08-11T16:13:05.829Z,7.80
2022-08-11T16:16:07.927Z,7.50
2022-08-11T16:19:05.560Z,7.10
2022-08-11T16:21:39.203Z,7.97
2022-08-11T16:27:03.405Z,8.77
2022-08-11T16:27:42.993Z,8.90
2022-08-11T16:30:10.805Z,8.00
2022-08-11T16:32:48.610Z,8.00
2022-08-11T16:35:56.543Z,8.10
2022-08-11T16:38:39.765Z,8.00
2022-08-11T16:41:14.022Z,8.07
2022-08-11T16:44:05.745Z,8.15
2022-08-11T16:46:52.042Z,7.65
2022-08-11T16:49:30.376Z,7.60
2022-08-11T16:52:10.988Z,7.80
2022-08-11T16:54:40.716Z,7.78
2022-08-11T16:57:37.458Z,7.60
2022-08-11T17:00:07.776Z,7.78
2022-08-11T17:03:00.845Z,7.80
2022-08-11T17:05:54.590Z,8.20
2022-08-11T17:08:57.200Z,7.90
2022-08-11T17:11:50.065Z,8.10
2022-08-11T17:14:35.489Z,8.30
2022-08-11T17:17:12.564Z,8.20
2022-08-11T17:20:42.730Z,7.82
2022-08-11T17:22:53.288Z,8.13
2022-08-11T17:25:22.197Z,8.20
2022-08-11T17:27:50.831Z,7.60
2022-08-11T17:30:17.602Z,8.40
2022-08-11T17:33:06.855Z,8.50
2022-08-11T17:35:39.005Z,8.30
2022-08-11T17:38:08.969Z,7.50
2022-08-11T17:41:23.308Z,7.90
2022-08-11T17:44:13.763Z,7.90
2022-08-11T17:47:05.178Z,8.10
2022-08-11T17:49:37.568Z,7.78
2022-08-11T17:52:26.262Z,8.90
2022-08-11T17:55:14.240Z,7.57
2022-08-11T17:58:01.231Z,7.78
2022-08-11T18:00:29.190Z,7.88
2022-08-11T18:03:17.549Z,8.00
2022-08-11T18:05:49.260Z,7.95
2022-08-11T18:08:40.134Z,7.93
2022-08-11T18:12:10.722Z,8.30
2022-08-11T18:14:39.511Z,7.72
2022-08-11T18:17:30.977Z,8.05
2022-08-11T18:20:18.125Z,8.30
2022-08-11T18:23:06.838Z,8.25
2022-08-11T18:26:00.012Z,8.30
2022-08-11T18:28:51.634Z,7.93
2022-08-11T18:31:42.125Z,7.88
2022-08-11T18:34:35.919Z,8.80
2022-08-11T18:37:27.194Z,8.35
2022-08-11T18:40:22.393Z,7.20
